createdAt,value
2019-04-07T00:02:09.983Z,49.60
2019-04-07T00:04:41.434Z,49.50
2019-04-07T00:07:13.809Z,49.60
2019-04-07T00:09:45.245Z,50.70
2019-04-07T00:12:16.320Z,52.80
2019-04-07T00:14:47.264Z,53.30
2019-04-07T00:17:19.178Z,53.70
2019-04-07T00:19:50.425Z,55.10
2019-04-07T00:22:21.273Z,55.50
2019-04-07T00:24:52.262Z,55.70
2019-04-07T00:27:23.591Z,55.30
2019-04-07T00:29:55.463Z,55.80
2019-04-07T00:32:26.482Z,56.00
2019-04-07T00:34:57.542Z,55.30
2019-04-07T00:37:28.417Z,54.90
2019-04-07T00:40:00.575Z,55.50
2019-04-07T00:42:31.674Z,55.80
2019-04-07T00:45:03.622Z,57.30
2019-04-07T00:47:34.239Z,57.10
2019-04-07T00:50:05.694Z,57.10
2019-04-07T00:52:36.998Z,57.50
2019-04-07T00:55:08.851Z,57.50
2019-04-07T00:57:39.638Z,57.20
2019-04-07T01:00:11.825Z,56.90
2019-04-07T01:02:43.072Z,56.60
2019-04-07T01:05:13.994Z,56.50
2019-04-07T01:07:45.209Z,56.70
2019-04-07T01:10:16.355Z,58.20
2019-04-07T01:12:47.361Z,59.60
2019-04-07T01:15:18.631Z,59.20
2019-04-07T01:17:49.093Z,59.70
2019-04-07T01:20:20.652Z,59.60
2019-04-07T01:22:51.594Z,60.60
2019-04-07T01:25:22.558Z,61.80
2019-04-07T01:27:53.271Z,61.90
2019-04-07T01:30:23.933Z,63.40
2019-04-07T01:32:54.875Z,64.30
2019-04-07T01:35:25.636Z,65.10
2019-04-07T01:37:57.059Z,65.50
2019-04-07T01:40:28.866Z,66.10
2019-04-07T01:43:14.242Z,66.10
2019-04-07T01:46:03.826Z,66.60
2019-04-07T01:48:52.332Z,68.10
2019-04-07T01:51:41.061Z,67.70
2019-04-07T01:54:20.941Z,68.60
2019-04-07T01:57:10.711Z,68.90
2019-04-07T01:59:58.846Z,68.90
2019-04-07T02:02:49.399Z,70.40
2019-04-07T02:05:58.653Z,69.80
2019-04-07T02:08:35.286Z,70.50
2019-04-07T02:11:43.990Z,72.40
2019-04-07T02:14:34.521Z,71.00
2019-04-07T02:17:19.948Z,70.70
2019-04-07T02:20:24.642Z,71.00
2019-04-07T02:23:14.356Z,71.10
2019-04-07T02:25:58.171Z,71.40
2019-04-07T02:28:57.214Z,71.40
2019-04-07T02:31:49.931Z,71.30
2019-04-07T02:34:29.893Z,71.90
2019-04-07T02:37:26.749Z,72.70
2019-04-07T02:40:17.849Z,73.90
2019-04-07T02:43:06.031Z,74.30
2019-04-07T02:45:56.447Z,74.50
2019-04-07T02:48:45.059Z,74.90
2019-04-07T02:51:26.257Z,75.60
2019-04-07T02:54:05.952Z,76.50
2019-04-07T02:56:57.538Z,77.90
2019-04-07T02:59:46.230Z,79.60
2019-04-07T03:02:34.555Z,80.60
2019-04-07T03:05:36.770Z,81.70
2019-04-07T03:08:42.926Z,82.00
2019-04-07T03:11:47.754Z,81.70
2019-04-07T03:14:31.327Z,81.80
2019-04-07T03:17:16.683Z,83.50
2019-04-07T03:19:56.243Z,83.70
2019-04-07T03:22:45.907Z,83.80
2019-04-07T03:25:35.620Z,84.50
2019-04-07T03:28:19.623Z,86.10
2019-04-07T03:31:08.333Z,86.60
2019-04-07T03:34:18.454Z,87.30
2019-04-07T03:37:18.388Z,87.70
2019-04-07T03:39:55.098Z,87.80
2019-04-07T03:42:32.760Z,88.50
2019-04-07T03:45:22.121Z,89.50
2019-04-07T03:48:07.106Z,90.20
2019-04-07T03:50:50.834Z,90.10
2019-04-07T03:53:50.531Z,90.50
2019-04-07T03:56:32.091Z,91.20
2019-04-07T03:59:20.139Z,92.00
2019-04-07T04:02:07.998Z,91.80
2019-04-07T04:04:46.499Z,91.90
2019-04-07T04:07:32.382Z,92.20
2019-04-07T04:10:27.140Z,92.70
2019-04-07T04:13:20.101Z,92.60
2019-04-07T04:16:10.513Z,92.90
2019-04-07T04:18:41.393Z,93.40
2019-04-07T04:21:11.923Z,93.40
2019-04-07T04:23:43.562Z,93.30
2019-04-07T04:26:15.137Z,92.70
2019-04-07T04:28:46.212Z,93.60
2019-04-07T04:31:17.989Z,93.60
2019-04-07T04:33:49.024Z,93.80
2019-04-07T04:36:19.715Z,93.90
2019-04-07T04:38:52.384Z,94.10
2019-04-07T04:41:23.316Z,94.20
2019-04-07T04:43:54.727Z,94.00
2019-04-07T04:46:25.890Z,94.30
2019-04-07T04:48:58.930Z,94.50
2019-04-07T04:51:35.078Z,94.70
2019-04-07T04:54:03.866Z,94.60
2019-04-07T04:56:34.612Z,94.60
2019-04-07T04:59:07.492Z,94.60
2019-04-07T05:01:38.484Z,94.70
2019-04-07T05:04:10.005Z,94.80
2019-04-07T05:06:41.325Z,94.70
2019-04-07T05:09:12.324Z,94.70
2019-04-07T05:11:43.577Z,94.70
2019-04-07T05:14:15.175Z,95.00
2019-04-07T05:16:45.734Z,94.70
2019-04-07T05:19:16.536Z,94.60
2019-04-07T05:21:47.358Z,94.90
2019-04-07T05:24:18.053Z,94.90
2019-04-07T05:26:48.966Z,94.80
2019-04-07T05:29:20.157Z,94.80
2019-04-07T05:31:51.366Z,95.10
2019-04-07T05:34:22.420Z,95.00
2019-04-07T05:36:54.503Z,95.10
2019-04-07T05:39:25.791Z,95.00
2019-04-07T05:41:57.064Z,95.10
2019-04-07T05:44:28.865Z,94.90
2019-04-07T05:46:59.739Z,95.00
2019-04-07T05:49:30.496Z,95.00
2019-04-07T05:52:04.028Z,94.90
2019-04-07T05:54:34.043Z,94.60
2019-04-07T05:57:05.461Z,94.60
2019-04-07T05:59:36.520Z,94.50
2019-04-07T06:02:08.011Z,94.60
2019-04-07T06:04:39.393Z,94.40
2019-04-07T06:07:11.399Z,94.50
2019-04-07T06:09:42.632Z,94.50
2019-04-07T06:12:13.365Z,94.40
2019-04-07T06:14:46.569Z,94.20
2019-04-07T06:17:16.563Z,94.00
2019-04-07T06:19:47.214Z,93.90
2019-04-07T06:22:19.829Z,93.70
2019-04-07T06:24:51.291Z,93.50
2019-04-07T06:27:21.965Z,93.70
2019-04-07T06:29:57.322Z,93.50
2019-04-07T06:32:26.917Z,93.30
2019-04-07T06:34:58.419Z,93.10
2019-04-07T06:37:29.502Z,93.20
2019-04-07T06:40:01.191Z,92.80
2019-04-07T06:42:34.075Z,92.70
2019-04-07T06:45:06.309Z,92.60
2019-04-07T06:47:46.439Z,92.70
2019-04-07T06:50:23.676Z,92.40
2019-04-07T06:53:18.665Z,92.20
2019-04-07T06:56:09.993Z,92.10
2019-04-07T06:58:59.304Z,92.00
2019-04-07T07:01:41.226Z,91.80
2019-04-07T07:04:30.067Z,91.90
2019-04-07T07:07:34.669Z,92.00
2019-04-07T07:10:28.689Z,92.10
2019-04-07T07:13:09.678Z,92.50
2019-04-07T07:16:05.146Z,92.40
2019-04-07T07:19:02.035Z,92.30
2019-04-07T07:21:54.498Z,92.30
2019-04-07T07:24:26.586Z,92.20
2019-04-07T07:26:58.090Z,92.00
2019-04-07T07:29:30.849Z,91.80
2019-04-07T07:32:03.801Z,91.70
2019-04-07T07:34:34.070Z,91.50
2019-04-07T07:37:05.275Z,91.50
2019-04-07T07:39:36.189Z,91.40
2019-04-07T07:42:07.367Z,91.50
2019-04-07T07:44:39.729Z,91.20
2019-04-07T07:47:11.863Z,91.10
2019-04-07T07:49:42.754Z,91.20
2019-04-07T07:52:16.562Z,91.20
2019-04-07T07:54:46.323Z,90.90
2019-04-07T07:57:21.000Z,90.80
2019-04-07T07:59:49.887Z,90.50
2019-04-07T08:02:21.882Z,90.50
2019-04-07T08:05:11.479Z,90.60
2019-04-07T08:07:46.811Z,90.10
2019-04-07T08:10:16.910Z,90.00
2019-04-07T08:12:49.487Z,89.70
2019-04-07T08:15:23.823Z,89.30
2019-04-07T08:17:53.903Z,89.30
2019-04-07T08:20:25.046Z,89.10
2019-04-07T08:22:56.166Z,86.40
2019-04-07T08:25:28.109Z,86.10
2019-04-07T08:28:02.169Z,84.90
2019-04-07T08:30:31.790Z,84.30
2019-04-07T08:33:03.474Z,82.20
2019-04-07T08:35:38.138Z,79.70
2019-04-07T08:38:06.822Z,79.50
2019-04-07T08:40:39.076Z,79.10
2019-04-07T08:43:10.164Z,78.80
2019-04-07T08:45:41.471Z,73.70
2019-04-07T08:48:11.991Z,58.60
2019-04-07T08:50:43.064Z,55.30
2019-04-07T08:53:16.256Z,48.10
2019-04-07T08:55:48.559Z,44.10
2019-04-07T08:58:25.831Z,40.20
2019-04-07T09:00:53.894Z,35.80
2019-04-07T09:03:24.422Z,33.20
2019-04-07T09:05:57.426Z,30.00
2019-04-07T09:08:28.406Z,32.10
2019-04-07T09:11:11.145Z,31.90
2019-04-07T09:13:44.300Z,30.00
2019-04-07T09:16:25.138Z,30.40
2019-04-07T09:19:10.399Z,28.80
2019-04-07T09:21:58.484Z,27.00
2019-04-07T09:24:50.846Z,27.50
2019-04-07T09:27:32.695Z,26.60
2019-04-07T09:30:22.577Z,24.40
2019-04-07T09:33:18.149Z,24.00
2019-04-07T09:36:16.982Z,24.10
2019-04-07T09:39:09.738Z,22.00
2019-04-07T09:41:57.326Z,21.50
2019-04-07T09:44:53.827Z,20.70
2019-04-07T09:47:49.686Z,20.30
2019-04-07T09:50:43.083Z,19.90
2019-04-07T09:53:48.756Z,18.90
2019-04-07T09:56:29.592Z,20.00
2019-04-07T09:59:20.518Z,19.60
2019-04-07T10:02:10.436Z,20.50
2019-04-07T10:04:58.737Z,21.40
2019-04-07T10:07:42.202Z,20.60
2019-04-07T10:10:33.260Z,20.60
2019-04-07T10:13:29.659Z,20.90
2019-04-07T10:16:35.359Z,22.30
2019-04-07T10:19:16.689Z,24.10
2019-04-07T10:22:05.409Z,25.90
2019-04-07T10:24:53.882Z,26.20
2019-04-07T10:27:33.958Z,26.40
2019-04-07T10:30:24.202Z,27.50
2019-04-07T10:33:04.954Z,28.40
2019-04-07T10:36:12.654Z,29.50
2019-04-07T10:38:56.853Z,30.40
2019-04-07T10:41:55.945Z,31.60
2019-04-07T10:44:45.583Z,33.60
2019-04-07T10:47:38.495Z,34.30
2019-04-07T10:50:28.598Z,35.50
2019-04-07T10:53:34.102Z,36.20
2019-04-07T10:56:27.691Z,38.60
2019-04-07T10:59:19.938Z,38.70
2019-04-07T11:02:10.351Z,39.20
2019-04-07T11:05:07.027Z,39.40
2019-04-07T11:08:09.154Z,40.00
2019-04-07T11:10:53.344Z,40.80
2019-04-07T11:13:48.857Z,40.70
2019-04-07T11:16:37.817Z,40.90
2019-04-07T11:19:27.312Z,41.50
2019-04-07T11:22:05.623Z,41.10
2019-04-07T11:25:05.382Z,41.50
2019-04-07T11:27:59.420Z,41.10
2019-04-07T11:30:39.844Z,41.30
2019-04-07T11:33:34.065Z,41.30
2019-04-07T11:36:39.672Z,41.10
2019-04-07T11:39:30.721Z,40.70
2019-04-07T11:42:19.729Z,41.30
2019-04-07T11:45:12.728Z,42.20
2019-04-07T11:48:01.485Z,41.80
2019-04-07T11:50:57.621Z,42.80
2019-04-07T11:53:54.308Z,42.60
2019-04-07T11:56:49.417Z,43.20
2019-04-07T11:59:51.293Z,42.90
2019-04-07T12:02:51.925Z,43.60
2019-04-07T12:05:44.164Z,43.90
2019-04-07T12:08:36.143Z,44.50
2019-04-07T12:11:20.746Z,44.10
2019-04-07T12:14:24.425Z,44.60
2019-04-07T12:17:21.018Z,45.00
2019-04-07T12:20:14.218Z,45.20
2019-04-07T12:23:10.394Z,45.30
2019-04-07T12:25:56.868Z,45.50
2019-04-07T12:28:53.745Z,45.90
2019-04-07T12:31:51.030Z,46.30
2019-04-07T12:34:46.424Z,45.90
2019-04-07T12:37:28.494Z,45.80
2019-04-07T12:40:22.980Z,46.10
2019-04-07T12:43:00.905Z,45.70
2019-04-07T12:45:56.459Z,45.30
2019-04-07T12:48:55.410Z,45.00
2019-04-07T12:51:56.048Z,44.50
2019-04-07T12:54:52.629Z,43.70
2019-04-07T12:57:35.462Z,44.00
2019-04-07T13:00:24.719Z,43.90
2019-04-07T13:03:22.895Z,43.80
2019-04-07T13:06:24.785Z,44.20
2019-04-07T13:09:16.380Z,44.70
2019-04-07T13:12:11.926Z,44.40
2019-04-07T13:15:05.542Z,44.30
2019-04-07T13:17:56.279Z,43.70
2019-04-07T13:20:55.095Z,44.80
2019-04-07T13:23:36.994Z,44.80
2019-04-07T13:26:30.264Z,45.10
2019-04-07T13:29:12.919Z,45.30
2019-04-07T13:31:57.552Z,45.90
2019-04-07T13:34:46.110Z,45.60
2019-04-07T13:37:44.937Z,46.00
2019-04-07T13:40:34.783Z,45.50
2019-04-07T13:43:18.706Z,45.70
2019-04-07T13:45:59.811Z,46.00
2019-04-07T13:48:51.124Z,46.30
2019-04-07T13:51:37.519Z,45.70
2019-04-07T13:54:47.146Z,46.40
2019-04-07T13:57:38.152Z,46.40
2019-04-07T14:00:30.620Z,46.80
2019-04-07T14:03:29.140Z,46.90
2019-04-07T14:06:19.407Z,47.40
2019-04-07T14:08:59.104Z,47.50
2019-04-07T14:12:01.573Z,47.60
2019-04-07T14:14:39.551Z,48.10
2019-04-07T14:17:20.853Z,48.30
2019-04-07T14:20:10.392Z,48.60
2019-04-07T14:22:56.661Z,48.90
2019-04-07T14:25:48.253Z,49.20
2019-04-07T14:28:34.608Z,49.50
2019-04-07T14:31:23.189Z,49.80
2019-04-07T14:34:15.748Z,50.20
2019-04-07T14:36:59.010Z,50.60
2019-04-07T14:39:41.096Z,51.00
2019-04-07T14:42:34.136Z,51.50
2019-04-07T14:45:21.058Z,51.70
2019-04-07T14:48:10.956Z,52.10
2019-04-07T14:51:04.856Z,51.80
2019-04-07T14:53:54.335Z,51.90
2019-04-07T14:56:37.896Z,51.90
2019-04-07T14:59:38.455Z,52.30
2019-04-07T15:02:10.400Z,52.10
2019-04-07T15:04:54.668Z,51.80
2019-04-07T15:07:50.299Z,51.90
2019-04-07T15:10:27.540Z,52.00
2019-04-07T15:13:04.078Z,52.10
2019-04-07T15:15:35.680Z,52.10
2019-04-07T15:18:07.222Z,51.90
2019-04-07T15:20:37.905Z,51.80
2019-04-07T15:23:09.080Z,52.10
2019-04-07T15:25:44.177Z,51.90
2019-04-07T15:28:14.258Z,52.40
2019-04-07T15:30:47.824Z,52.40
2019-04-07T15:33:17.789Z,52.80
2019-04-07T15:35:50.173Z,52.90
2019-04-07T15:38:24.936Z,53.20
2019-04-07T15:40:53.181Z,53.40
2019-04-07T15:43:24.293Z,55.00
2019-04-07T15:45:55.775Z,55.40
2019-04-07T15:48:27.127Z,55.90
2019-04-07T15:51:00.972Z,56.20
2019-04-07T15:53:31.943Z,56.50
2019-04-07T15:56:06.578Z,56.50
2019-04-07T15:58:35.931Z,57.10
2019-04-07T16:01:09.335Z,57.10
2019-04-07T16:03:39.413Z,57.40
2019-04-07T16:06:14.330Z,57.80
2019-04-07T16:08:42.791Z,58.20
2019-04-07T16:11:16.434Z,58.60
2019-04-07T16:13:46.308Z,59.00
2019-04-07T16:16:17.762Z,59.50
2019-04-07T16:18:48.576Z,59.40
2019-04-07T16:21:20.658Z,59.70
2019-04-07T16:23:53.341Z,59.60
2019-04-07T16:26:23.991Z,59.80
2019-04-07T16:28:55.203Z,60.30
2019-04-07T16:31:25.999Z,60.10
2019-04-07T16:33:57.043Z,60.30
2019-04-07T16:36:28.182Z,60.80
2019-04-07T16:39:01.757Z,60.50
2019-04-07T16:41:32.845Z,61.30
2019-04-07T16:44:06.391Z,61.00
2019-04-07T16:46:36.836Z,61.10
2019-04-07T16:49:07.804Z,62.10
2019-04-07T16:51:40.454Z,61.20
2019-04-07T16:54:11.784Z,61.40
2019-04-07T16:56:44.022Z,61.60
2019-04-07T16:59:15.582Z,62.00
2019-04-07T17:01:46.417Z,61.80
2019-04-07T17:04:17.429Z,61.70
2019-04-07T17:06:59.486Z,62.50
2019-04-07T17:09:24.720Z,62.70
2019-04-07T17:11:54.711Z,62.70
2019-04-07T17:14:26.821Z,63.10
2019-04-07T17:16:57.994Z,63.40
2019-04-07T17:19:30.021Z,62.90
2019-04-07T17:22:03.096Z,63.10
2019-04-07T17:24:35.282Z,63.10
2019-04-07T17:27:09.704Z,63.20
2019-04-07T17:29:39.522Z,63.40
2019-04-07T17:32:10.938Z,63.30
2019-04-07T17:34:43.584Z,63.80
2019-04-07T17:37:16.237Z,63.60
2019-04-07T17:39:55.952Z,63.90
2019-04-07T17:42:28.290Z,64.20
2019-04-07T17:45:20.409Z,64.40
2019-04-07T17:48:07.845Z,64.40
2019-04-07T17:50:56.490Z,64.30
2019-04-07T17:53:47.291Z,64.80
2019-04-07T17:56:46.302Z,64.70
2019-04-07T17:59:38.420Z,65.10
2019-04-07T18:02:28.765Z,65.30
2019-04-07T18:05:26.577Z,65.50
2019-04-07T18:08:33.981Z,65.70
2019-04-07T18:11:29.780Z,65.80
2019-04-07T18:14:30.179Z,66.10
2019-04-07T18:17:39.793Z,66.20
2019-04-07T18:20:28.345Z,66.00
2019-04-07T18:23:16.566Z,66.40
2019-04-07T18:26:08.790Z,66.40
2019-04-07T18:28:54.043Z,66.90
2019-04-07T18:31:49.031Z,66.60
2019-04-07T18:34:39.696Z,66.80
2019-04-07T18:37:29.065Z,67.50
2019-04-07T18:40:35.109Z,67.60
2019-04-07T18:43:19.023Z,67.70
2019-04-07T18:46:20.196Z,67.90
2019-04-07T18:49:10.351Z,68.20
2019-04-07T18:51:53.738Z,68.00
2019-04-07T18:54:42.435Z,68.30
2019-04-07T18:57:42.802Z,68.40
2019-04-07T19:00:32.423Z,68.60
2019-04-07T19:03:18.167Z,69.00
2019-04-07T19:06:07.455Z,69.10
2019-04-07T19:08:52.726Z,69.40
2019-04-07T19:11:37.415Z,69.40
2019-04-07T19:14:45.367Z,69.90
2019-04-07T19:17:33.647Z,70.20
2019-04-07T19:20:22.884Z,70.10
2019-04-07T19:23:11.649Z,70.20
2019-04-07T19:25:51.168Z,70.40
2019-04-07T19:28:43.719Z,70.80
2019-04-07T19:31:23.685Z,70.70
2019-04-07T19:34:31.758Z,71.00
2019-04-07T19:37:15.600Z,71.20
2019-04-07T19:40:02.509Z,71.50
2019-04-07T19:43:01.721Z,72.10
2019-04-07T19:45:58.529Z,72.40
2019-04-07T19:48:46.998Z,73.00
2019-04-07T19:51:34.447Z,73.80
2019-04-07T19:54:23.553Z,75.50
2019-04-07T19:57:04.740Z,75.90
2019-04-07T19:59:58.334Z,76.60
2019-04-07T20:02:53.775Z,77.20
2019-04-07T20:05:58.933Z,77.30
2019-04-07T20:08:49.304Z,77.50
2019-04-07T20:11:36.908Z,77.60
2019-04-07T20:14:32.209Z,77.60
2019-04-07T20:17:23.704Z,77.90
2019-04-07T20:20:23.828Z,77.70
2019-04-07T20:23:16.760Z,78.20
2019-04-07T20:25:53.254Z,77.80
2019-04-07T20:28:46.607Z,78.30
2019-04-07T20:31:36.461Z,78.40
2019-04-07T20:34:26.667Z,78.90
2019-04-07T20:37:03.933Z,79.10
2019-04-07T20:39:56.239Z,80.00
2019-04-07T20:42:48.513Z,79.60
2019-04-07T20:45:49.126Z,79.40
2019-04-07T20:48:37.094Z,80.30
2019-04-07T20:51:24.218Z,80.30
2019-04-07T20:54:19.941Z,80.80
2019-04-07T20:57:16.302Z,80.80
2019-04-07T21:00:03.474Z,81.20
2019-04-07T21:03:06.434Z,81.00
2019-04-07T21:05:33.651Z,81.20
2019-04-07T21:08:20.976Z,81.60
2019-04-07T21:11:09.002Z,82.00
2019-04-07T21:14:07.773Z,82.40
2019-04-07T21:17:07.048Z,82.50
2019-04-07T21:20:09.773Z,82.80
2019-04-07T21:23:09.230Z,83.60
2019-04-07T21:26:05.779Z,83.80
2019-04-07T21:29:02.395Z,84.10
2019-04-07T21:32:08.302Z,84.70
2019-04-07T21:34:47.231Z,85.20
2019-04-07T21:37:37.955Z,85.80
2019-04-07T21:40:18.720Z,86.00
2019-04-07T21:43:07.229Z,86.00
2019-04-07T21:46:03.016Z,86.40
2019-04-07T21:48:58.043Z,86.40
2019-04-07T21:51:38.787Z,86.00
2019-04-07T21:54:44.053Z,86.40
2019-04-07T21:57:56.753Z,87.30
2019-04-07T22:00:43.634Z,86.40
2019-04-07T22:03:40.878Z,86.60
2019-04-07T22:06:37.267Z,86.00
2019-04-07T22:09:17.053Z,86.30
2019-04-07T22:11:49.432Z,86.30
2019-04-07T22:14:20.856Z,86.20
2019-04-07T22:16:51.519Z,86.30
2019-04-07T22:19:22.662Z,86.40
2019-04-07T22:21:56.364Z,87.30
2019-04-07T22:24:26.319Z,86.10
2019-04-07T22:26:57.533Z,86.90
2019-04-07T22:29:28.748Z,87.00
2019-04-07T22:31:59.855Z,87.90
2019-04-07T22:34:32.701Z,88.00
2019-04-07T22:37:04.490Z,88.40
2019-04-07T22:39:35.837Z,88.70
2019-04-07T22:42:06.890Z,89.20
2019-04-07T22:44:38.121Z,89.60
2019-04-07T22:47:10.883Z,89.30
2019-04-07T22:49:41.618Z,89.50
2019-04-07T22:52:16.033Z,89.70
2019-04-07T22:54:45.728Z,90.10
2019-04-07T22:57:17.666Z,90.30
2019-04-07T22:59:48.383Z,90.50
2019-04-07T23:02:20.004Z,90.70
2019-04-07T23:04:50.890Z,91.10
2019-04-07T23:07:23.446Z,91.20
2019-04-07T23:09:54.371Z,91.50
2019-04-07T23:12:24.970Z,91.50
2019-04-07T23:14:56.230Z,91.90
2019-04-07T23:17:28.024Z,92.10
2019-04-07T23:19:59.657Z,92.30
2019-04-07T23:22:30.611Z,92.60
2019-04-07T23:25:01.706Z,92.60
2019-04-07T23:27:32.687Z,92.80
2019-04-07T23:30:03.719Z,93.00
2019-04-07T23:32:34.437Z,92.80
2019-04-07T23:35:06.166Z,93.00
2019-04-07T23:37:37.172Z,93.00
2019-04-07T23:40:08.818Z,93.00
2019-04-07T23:42:40.131Z,93.10
2019-04-07T23:45:11.118Z,93.30
2019-04-07T23:47:42.740Z,93.30
2019-04-07T23:50:15.622Z,93.50
2019-04-07T23:52:46.474Z,93.50
2019-04-07T23:55:17.603Z,93.80
2019-04-07T23:57:48.689Z,93.80
